Time;durP1;ratioP1;P1;durP2;ratioP2;P2;SDS_P1;SDS_P2;PMS_P1;PMS_P2;Temp;Humidity;BMP_temperature;BMP_pressure;BME280_temperature;BME280_humidity;BME280_pressure;Samples;Min_cycle;Max_cycle;Signal;HPM_P1;HPM_P2
2022/09/03 00:02:03;;;;;;;10.30;5.27;;;15.10;97.40;;;;;;5116441;27;20305;-67
2022/09/03 00:04:43;;;;;;;9.33;5.93;;;15.10;97.40;;;;;;5112737;28;20650;-68
2022/09/03 00:07:17;;;;;;;9.33;6.70;;;15.10;97.90;;;;;;5112586;28;20640;-68
2022/09/03 00:09:49;;;;;;;10.97;7.00;;;15.10;97.60;;;;;;5112460;28;20207;-68
2022/09/03 00:12:22;;;;;;;11.37;7.43;;;15.10;97.40;;;;;;5112579;27;20183;-67
2022/09/03 00:14:55;;;;;;;11.60;8.03;;;15.10;97.30;;;;;;5112403;28;20188;-67
2022/09/03 00:17:27;;;;;;;12.93;7.80;;;15.10;97.90;;;;;;5112658;28;20254;-68
2022/09/03 00:19:57;;;;;;;12.03;7.40;;;15.10;97.30;;;;;;5112512;28;20578;-67
2022/09/03 00:22:29;;;;;;;12.87;7.90;;;15.10;97.30;;;;;;5112017;28;20235;-68
2022/09/03 00:24:59;;;;;;;11.90;6.93;;;15.10;97.20;;;;;;5112126;28;20192;-68
2022/09/03 00:27:28;;;;;;;12.13;7.00;;;15.10;97.30;;;;;;5117373;28;20235;-67
2022/09/03 00:30:02;;;;;;;9.93;5.73;;;15.10;97.40;;;;;;5132728;28;20253;-69
2022/09/03 00:32:37;;;;;;;11.67;5.90;;;15.20;97.50;;;;;;5132738;28;20183;-67
2022/09/03 00:35:10;;;;;;;12.00;5.73;;;15.20;97.40;;;;;;5132454;27;20187;-67
2022/09/03 00:37:37;;;;;;;12.27;5.57;;;15.30;97.50;;;;;;5132563;27;20222;-68
2022/09/03 00:40:09;;;;;;;8.37;4.70;;;15.30;97.50;;;;;;5132290;28;20202;-68
2022/09/03 00:42:43;;;;;;;9.53;4.70;;;15.30;97.50;;;;;;5131971;27;20555;-67
2022/09/03 00:45:28;;;;;;;7.63;4.93;;;15.30;97.60;;;;;;5130788;28;20202;-67
2022/09/03 00:48:08;;;;;;;9.33;4.80;;;15.30;97.80;;;;;;5129145;27;20217;-68
2022/09/03 00:50:45;;;;;;;7.80;4.50;;;15.30;97.90;;;;;;5136729;27;20221;-67
2022/09/03 00:53:19;;;;;;;7.57;4.00;;;15.20;98.00;;;;;;5133319;27;20222;-68
2022/09/03 00:55:55;;;;;;;6.73;4.40;;;15.30;98.00;;;;;;5136514;27;20190;-68
2022/09/03 00:58:45;;;;;;;6.67;3.90;;;15.20;97.80;;;;;;5136723;27;20194;-68
2022/09/03 01:01:20;;;;;;;5.70;4.10;;;15.20;97.90;;;;;;5135902;27;20229;-67
2022/09/03 01:03:57;;;;;;;6.43;3.83;;;15.10;97.80;;;;;;5136360;27;20221;-67
2022/09/03 01:06:32;;;;;;;7.93;3.90;;;15.00;97.70;;;;;;5135683;27;20196;-68
2022/09/03 01:09:19;;;;;;;9.73;4.53;;;15.00;97.90;;;;;;5136077;27;20190;-68
2022/09/03 01:11:58;;;;;;;7.30;4.00;;;15.00;97.70;;;;;;5131195;27;20209;-66
2022/09/03 01:14:37;;;;;;;6.00;3.90;;;15.00;97.80;;;;;;5136293;27;20198;-69
2022/09/03 01:17:16;;;;;;;7.53;3.70;;;15.00;98.10;;;;;;5136160;27;20182;-68
2022/09/03 01:20:09;;;;;;;7.00;3.67;;;15.00;98.00;;;;;;5136326;27;20210;-67
2022/09/03 01:23:03;;;;;;;7.43;3.83;;;15.00;97.80;;;;;;5136223;27;20244;-68
2022/09/03 01:25:40;;;;;;;5.60;3.70;;;15.00;97.70;;;;;;5121820;27;20230;-68
2022/09/03 01:28:32;;;;;;;6.37;3.80;;;15.00;97.80;;;;;;5136127;27;20637;-67
2022/09/03 01:31:10;;;;;;;6.20;3.80;;;15.00;98.10;;;;;;5135887;27;20231;-67
2022/09/03 01:33:40;;;;;;;6.80;3.83;;;14.90;98.30;;;;;;5136020;27;20277;-68
2022/09/03 01:36:16;;;;;;;7.80;3.83;;;14.90;98.70;;;;;;5135638;27;20195;-67
2022/09/03 01:38:48;;;;;;;8.43;3.93;;;14.80;98.30;;;;;;5135943;27;20221;-67
2022/09/03 01:44:20;;;;;;;7.90;3.90;;;14.80;98.70;;;;;;5135911;27;20749;-68
2022/09/03 01:46:50;;;;;;;6.47;3.87;;;14.80;98.60;;;;;;5135721;27;20190;-66
2022/09/03 01:49:24;;;;;;;7.77;3.40;;;14.80;98.50;;;;;;5135939;27;20194;-67
2022/09/03 01:51:59;;;;;;;5.60;3.40;;;14.80;98.40;;;;;;5135714;27;20191;-67
2022/09/03 01:54:41;;;;;;;5.90;3.60;;;14.80;98.40;;;;;;5135140;27;20729;-68
2022/09/03 01:57:35;;;;;;;6.10;3.40;;;14.80;98.30;;;;;;5135407;27;20279;-68
2022/09/03 02:00:08;;;;;;;9.97;3.37;;;14.80;98.10;;;;;;5134845;27;20187;-67
2022/09/03 02:02:35;;;;;;;4.87;3.40;;;14.70;98.40;;;;;;5134289;27;20206;-68
2022/09/03 02:05:07;;;;;;;7.20;3.70;;;14.70;98.20;;;;;;5135218;27;20214;-68
2022/09/03 02:07:37;;;;;;;7.27;3.37;;;14.70;98.20;;;;;;5135335;27;20255;-67
2022/09/03 02:10:07;;;;;;;6.40;3.67;;;14.70;98.20;;;;;;5134229;27;20225;-67
2022/09/03 02:12:37;;;;;;;6.03;3.20;;;14.70;98.20;;;;;;5135343;27;20206;-67
2022/09/03 02:15:10;;;;;;;5.50;3.37;;;14.70;98.40;;;;;;5135635;27;20551;-67
2022/09/03 02:17:37;;;;;;;8.63;3.60;;;14.80;98.50;;;;;;5135047;27;20219;-67
2022/09/03 02:20:10;;;;;;;7.17;4.33;;;14.80;98.40;;;;;;5135131;27;20202;-68
2022/09/03 02:22:38;;;;;;;6.17;3.70;;;14.80;98.40;;;;;;5134693;27;20277;-67
2022/09/03 02:25:07;;;;;;;6.23;3.53;;;14.80;98.60;;;;;;5133435;27;20199;-68
2022/09/03 02:27:34;;;;;;;5.60;3.33;;;14.80;98.60;;;;;;5134512;27;20235;-68
2022/09/03 02:30:01;;;;;;;5.23;3.60;;;14.70;98.80;;;;;;5135155;27;20309;-67
2022/09/03 02:32:29;;;;;;;5.33;3.30;;;14.70;98.80;;;;;;5134579;27;20206;-68
2022/09/03 02:34:56;;;;;;;6.50;3.50;;;14.70;98.60;;;;;;5134873;27;20696;-67
2022/09/03 02:37:23;;;;;;;5.10;3.50;;;14.70;98.70;;;;;;5134522;27;20206;-67
2022/09/03 02:39:50;;;;;;;6.20;3.33;;;14.80;98.70;;;;;;5133371;27;20206;-68
2022/09/03 02:42:17;;;;;;;6.70;3.70;;;14.80;98.80;;;;;;5134864;27;20199;-67
2022/09/03 02:44:48;;;;;;;5.83;3.17;;;14.80;98.70;;;;;;5134291;27;20230;-68
2022/09/03 02:47:16;;;;;;;6.20;3.47;;;14.80;98.60;;;;;;5134391;27;20187;-68
2022/09/03 02:49:45;;;;;;;7.13;3.23;;;14.80;98.70;;;;;;5134180;27;20206;-67
2022/09/03 02:52:12;;;;;;;6.13;3.30;;;14.80;98.90;;;;;;5132604;27;20206;-68
2022/09/03 02:54:40;;;;;;;5.77;3.43;;;14.80;98.70;;;;;;5133176;27;20211;-67
2022/09/03 02:57:07;;;;;;;5.33;3.47;;;14.80;98.70;;;;;;5134411;27;20203;-69
2022/09/03 02:59:34;;;;;;;6.57;3.60;;;14.80;98.80;;;;;;5133851;27;20203;-66
2022/09/03 03:02:01;;;;;;;7.20;3.43;;;14.90;98.90;;;;;;5134341;27;20310;-68
2022/09/03 03:04:28;;;;;;;5.03;3.23;;;14.90;99.10;;;;;;5133834;27;20215;-67
2022/09/03 03:06:56;;;;;;;5.83;3.57;;;14.90;99.00;;;;;;5133520;27;20209;-67
2022/09/03 03:09:23;;;;;;;6.30;3.70;;;14.90;98.90;;;;;;5133770;27;20594;-67
2022/09/03 03:11:50;;;;;;;6.40;3.70;;;14.90;98.80;;;;;;5133363;27;20253;-67
2022/09/03 03:14:17;;;;;;;6.13;3.70;;;15.00;98.80;;;;;;5134144;27;20202;-66
2022/09/03 03:16:44;;;;;;;8.93;4.17;;;15.00;98.90;;;;;;5133935;27;20214;-68
2022/09/03 03:19:11;;;;;;;6.93;3.70;;;15.00;98.90;;;;;;5134117;27;20224;-68
2022/09/03 03:21:37;;;;;;;6.70;3.70;;;15.00;98.90;;;;;;5131669;27;20591;-66
2022/09/03 03:24:06;;;;;;;5.13;3.70;;;15.00;99.00;;;;;;5133846;27;20209;-67
2022/09/03 03:26:33;;;;;;;9.87;3.90;;;15.00;99.10;;;;;;5133349;27;20206;-68
2022/09/03 03:29:04;;;;;;;7.13;3.60;;;15.00;99.20;;;;;;5133596;27;20293;-68
2022/09/03 03:31:31;;;;;;;8.40;4.00;;;15.00;99.40;;;;;;5133536;27;20572;-68
2022/09/03 03:34:01;;;;;;;6.73;3.37;;;15.00;99.20;;;;;;5133544;27;20295;-67
2022/09/03 03:36:29;;;;;;;6.17;3.50;;;15.00;99.20;;;;;;5132566;27;20203;-67
2022/09/03 03:38:58;;;;;;;6.43;3.60;;;15.00;99.20;;;;;;5133296;27;20255;-67
2022/09/03 03:41:27;;;;;;;7.60;4.23;;;15.00;99.20;;;;;;5131273;27;20195;-68
2022/09/03 03:43:55;;;;;;;7.70;4.07;;;15.00;99.30;;;;;;5133526;27;20229;-68
2022/09/03 03:46:23;;;;;;;7.50;4.60;;;15.00;99.60;;;;;;5133320;27;20578;-67
2022/09/03 03:48:50;;;;;;;8.90;4.77;;;15.10;99.70;;;;;;5132544;27;20237;-70
2022/09/03 03:51:18;;;;;;;9.30;4.90;;;15.10;99.80;;;;;;5132745;27;20219;-68
2022/09/03 03:53:45;;;;;;;7.40;4.43;;;15.10;99.90;;;;;;5132997;27;20227;-68
2022/09/03 03:56:14;;;;;;;7.30;4.60;;;15.10;99.90;;;;;;5133362;27;20213;-68
2022/09/03 03:58:43;;;;;;;8.20;4.83;;;15.10;99.90;;;;;;5133324;27;20199;-70
2022/09/03 04:01:12;;;;;;;8.03;4.80;;;15.20;99.90;;;;;;5132168;27;20298;-68
2022/09/03 04:03:38;;;;;;;9.67;4.27;;;15.20;99.90;;;;;;5132626;27;20207;-67
2022/09/03 04:06:06;;;;;;;8.17;4.83;;;15.20;99.90;;;;;;5132948;27;20205;-67
2022/09/03 04:08:35;;;;;;;8.27;4.83;;;15.20;99.90;;;;;;5132632;27;20284;-68
2022/09/03 04:11:03;;;;;;;11.37;4.83;;;15.20;99.90;;;;;;5132818;27;20223;-68
2022/09/03 04:13:30;;;;;;;7.73;4.50;;;15.20;99.90;;;;;;5132793;27;20659;-68
2022/09/03 04:16:02;;;;;;;8.17;4.53;;;15.20;99.90;;;;;;5131645;27;20202;-69
2022/09/03 04:18:30;;;;;;;8.33;5.20;;;15.20;99.90;;;;;;5132764;27;20198;-68
2022/09/03 04:21:02;;;;;;;7.97;4.60;;;15.20;99.90;;;;;;5132030;27;20191;-68
2022/09/03 04:23:30;;;;;;;8.37;4.83;;;15.20;99.90;;;;;;5132252;27;20197;-66
2022/09/03 04:25:57;;;;;;;8.37;4.80;;;15.20;99.90;;;;;;5132831;27;20218;-67
2022/09/03 04:28:23;;;;;;;8.80;5.13;;;15.20;99.90;;;;;;5132083;28;20674;-68
2022/09/03 04:30:50;;;;;;;9.77;5.23;;;15.20;99.90;;;;;;5132699;28;20682;-67
2022/09/03 04:33:18;;;;;;;13.73;5.53;;;15.10;99.90;;;;;;5131660;28;20202;-67
2022/09/03 04:35:46;;;;;;;9.90;5.60;;;15.10;99.90;;;;;;5132654;28;20207;-68
2022/09/03 04:38:12;;;;;;;10.53;5.60;;;15.10;99.90;;;;;;5132594;28;20757;-67
2022/09/03 04:40:39;;;;;;;10.87;5.67;;;15.10;99.90;;;;;;5126575;28;20200;-67
2022/09/03 04:43:06;;;;;;;13.07;5.63;;;15.10;99.90;;;;;;5115844;28;20301;-67
2022/09/03 04:45:33;;;;;;;11.70;5.60;;;15.00;99.90;;;;;;5131115;28;20310;-68
2022/09/03 04:48:00;;;;;;;10.73;5.40;;;15.00;99.90;;;;;;5132403;28;20203;-67
2022/09/03 04:50:30;;;;;;;21.00;5.83;;;15.00;99.90;;;;;;5132029;28;20222;-68
2022/09/03 04:53:01;;;;;;;14.07;5.10;;;15.00;99.90;;;;;;5132608;28;20252;-67
2022/09/03 04:55:28;;;;;;;13.47;4.63;;;15.00;99.90;;;;;;5132171;28;20207;-67
2022/09/03 04:57:54;;;;;;;15.53;4.60;;;15.00;99.90;;;;;;5132587;28;20245;-69
2022/09/03 05:00:21;;;;;;;15.93;5.13;;;15.10;99.90;;;;;;5129908;28;20210;-68
2022/09/03 05:02:50;;;;;;;11.77;4.93;;;15.10;99.90;;;;;;5132524;28;20213;-67
2022/09/03 05:05:18;;;;;;;8.30;4.53;;;15.10;99.90;;;;;;5131384;28;20199;-71
2022/09/03 05:07:46;;;;;;;14.07;4.90;;;15.10;99.90;;;;;;5132293;28;20238;-68
2022/09/03 05:10:19;;;;;;;10.67;5.13;;;15.20;99.90;;;;;;5132086;28;20545;-68
2022/09/03 05:12:46;;;;;;;10.10;5.97;;;15.20;99.90;;;;;;5132374;28;20186;-68
2022/09/03 05:15:13;;;;;;;12.13;6.20;;;15.20;99.90;;;;;;5131867;28;20283;-67
2022/09/03 05:17:40;;;;;;;9.90;5.43;;;15.20;99.90;;;;;;5132087;28;20207;-69
2022/09/03 05:20:08;;;;;;;10.90;5.87;;;15.30;99.90;;;;;;5125756;28;20627;-68
2022/09/03 05:22:35;;;;;;;11.33;5.93;;;15.20;99.90;;;;;;5130901;27;20658;-68
2022/09/03 05:25:04;;;;;;;11.13;5.57;;;15.20;99.90;;;;;;5119417;28;20207;-67
2022/09/03 05:27:31;;;;;;;11.83;5.80;;;15.20;99.90;;;;;;5117152;28;20591;-68
2022/09/03 05:29:58;;;;;;;9.73;5.37;;;15.30;99.90;;;;;;5116974;28;20222;-69
2022/09/03 05:32:27;;;;;;;13.27;6.07;;;15.20;99.90;;;;;;5127141;28;20239;-69
2022/09/03 05:34:54;;;;;;;11.40;5.63;;;15.20;99.90;;;;;;5122857;27;20210;-69
2022/09/03 05:37:22;;;;;;;12.60;6.50;;;15.30;99.90;;;;;;5124545;27;20203;-67
2022/09/03 05:39:49;;;;;;;11.27;6.00;;;15.40;99.90;;;;;;5133523;27;20562;-66
2022/09/03 05:42:17;;;;;;;12.07;6.30;;;15.50;99.90;;;;;;5130882;27;20283;-68
2022/09/03 05:44:44;;;;;;;11.23;5.80;;;15.50;99.90;;;;;;5122325;27;20310;-67
2022/09/03 05:47:10;;;;;;;11.23;6.07;;;15.60;99.90;;;;;;5122319;27;20192;-68
2022/09/03 05:49:38;;;;;;;12.57;6.83;;;15.60;99.90;;;;;;5125573;27;20213;-68
2022/09/03 05:52:05;;;;;;;12.60;6.40;;;15.70;99.90;;;;;;5127414;27;20222;-68
2022/09/03 05:54:32;;;;;;;10.20;6.00;;;15.70;99.90;;;;;;5121046;27;20792;-68
2022/09/03 05:56:59;;;;;;;13.03;6.67;;;15.80;99.90;;;;;;5114718;28;20294;-68
2022/09/03 05:59:27;;;;;;;11.07;6.93;;;15.80;99.90;;;;;;5123379;27;20191;-69
2022/09/03 06:01:54;;;;;;;11.80;6.90;;;15.90;99.90;;;;;;5123069;27;20214;-68
2022/09/03 06:04:21;;;;;;;10.30;6.53;;;15.90;99.90;;;;;;5124138;27;20656;-67
2022/09/03 06:06:48;;;;;;;13.53;6.87;;;16.00;99.90;;;;;;5123536;27;20237;-69
2022/09/03 06:09:17;;;;;;;12.83;7.40;;;16.00;99.90;;;;;;5124619;27;20206;-69
2022/09/03 06:11:45;;;;;;;13.87;7.10;;;16.10;99.90;;;;;;5123078;27;20220;-67
2022/09/03 06:14:14;;;;;;;13.80;7.63;;;16.20;99.90;;;;;;5123036;27;20564;-68
2022/09/03 06:16:44;;;;;;;14.80;7.90;;;16.30;99.90;;;;;;5123001;27;20196;-67
2022/09/03 06:19:13;;;;;;;10.87;7.27;;;16.40;99.90;;;;;;5125157;27;20657;-67
2022/09/03 06:21:41;;;;;;;11.47;6.70;;;16.40;99.90;;;;;;5122562;27;20257;-69
2022/09/03 06:24:10;;;;;;;15.53;7.93;;;16.60;99.90;;;;;;5123119;27;20208;-67
2022/09/03 06:26:38;;;;;;;14.20;6.80;;;16.70;99.90;;;;;;5125770;27;20685;-68
2022/09/03 06:29:05;;;;;;;15.17;7.13;;;16.80;99.90;;;;;;5122383;27;20232;-68
2022/09/03 06:31:32;;;;;;;16.40;7.00;;;16.90;99.90;;;;;;5123245;27;20221;-70
2022/09/03 06:34:00;;;;;;;12.07;6.77;;;17.00;99.90;;;;;;5123914;27;20197;-69
2022/09/03 06:36:27;;;;;;;13.33;6.43;;;17.10;99.90;;;;;;5125686;27;20288;-69
2022/09/03 06:38:56;;;;;;;13.07;6.40;;;17.20;99.90;;;;;;5134270;27;20228;-67
2022/09/03 06:41:24;;;;;;;14.90;6.30;;;17.40;99.80;;;;;;5135021;27;20677;-69
2022/09/03 06:43:52;;;;;;;12.60;6.00;;;17.50;99.20;;;;;;5133528;27;20613;-69
2022/09/03 06:46:21;;;;;;;10.13;6.13;;;17.50;98.90;;;;;;5134545;27;20213;-68
2022/09/03 06:48:49;;;;;;;11.93;5.47;;;17.50;99.00;;;;;;5134768;27;20231;-69
2022/09/03 06:51:19;;;;;;;10.70;6.30;;;17.70;99.20;;;;;;5134723;27;20232;-68
2022/09/03 06:53:48;;;;;;;13.30;6.70;;;17.80;98.90;;;;;;5125034;27;20202;-67
2022/09/03 06:56:17;;;;;;;15.30;7.13;;;17.80;98.90;;;;;;5122805;27;20200;-68
2022/09/03 06:58:46;;;;;;;10.53;5.77;;;17.90;99.00;;;;;;5127325;27;20210;-68
2022/09/03 07:01:14;;;;;;;11.47;6.17;;;17.90;98.30;;;;;;5126046;27;20348;-68
2022/09/03 07:03:43;;;;;;;15.53;6.57;;;17.90;98.40;;;;;;5125349;27;20207;-69
2022/09/03 07:06:11;;;;;;;13.83;6.63;;;18.00;98.30;;;;;;5121757;27;20658;-68
2022/09/03 07:08:40;;;;;;;15.77;7.60;;;18.00;98.30;;;;;;5122387;27;20205;-69
2022/09/03 07:11:10;;;;;;;13.27;7.10;;;18.10;98.20;;;;;;5121486;27;20632;-69
2022/09/03 07:13:39;;;;;;;13.47;6.90;;;18.10;97.80;;;;;;5123607;27;20206;-69
2022/09/03 07:16:08;;;;;;;13.97;7.67;;;18.10;97.90;;;;;;5125647;27;20202;-69
2022/09/03 07:18:35;;;;;;;14.43;6.43;;;18.10;98.00;;;;;;5122673;27;20699;-68
2022/09/03 07:21:04;;;;;;;11.70;6.03;;;18.20;98.30;;;;;;5121299;27;20859;-70
2022/09/03 07:23:32;;;;;;;11.50;6.53;;;18.10;98.50;;;;;;5120883;27;20213;-68
2022/09/03 07:26:03;;;;;;;12.57;6.50;;;18.00;98.60;;;;;;5123784;27;20195;-69
2022/09/03 07:28:32;;;;;;;10.53;6.13;;;17.80;99.20;;;;;;5121271;27;20602;-69
2022/09/03 07:31:02;;;;;;;9.83;6.60;;;17.80;99.30;;;;;;5123473;27;20199;-68
2022/09/03 07:33:30;;;;;;;13.30;7.07;;;17.90;99.30;;;;;;5121245;27;20186;-70
2022/09/03 07:36:02;;;;;;;12.37;6.40;;;18.00;99.10;;;;;;5121722;27;20311;-69
2022/09/03 07:38:28;;;;;;;11.10;6.40;;;18.10;98.50;;;;;;5121160;27;20186;-72
2022/09/03 07:40:58;;;;;;;8.67;5.70;;;18.00;98.40;;;;;;5124789;27;20653;-68
2022/09/03 07:43:26;;;;;;;8.87;5.77;;;17.90;98.40;;;;;;5122882;27;20194;-68
2022/09/03 07:45:55;;;;;;;10.83;6.10;;;17.80;98.40;;;;;;5121743;27;20203;-69
2022/09/03 07:48:23;;;;;;;10.60;5.27;;;17.90;98.40;;;;;;5120959;27;20206;-66
2022/09/03 07:50:50;;;;;;;9.67;5.60;;;18.00;98.30;;;;;;5115049;27;20196;-68
2022/09/03 07:53:19;;;;;;;10.60;5.00;;;18.10;98.00;;;;;;5112955;28;20233;-69
2022/09/03 07:55:46;;;;;;;11.40;5.50;;;18.10;97.90;;;;;;5121861;27;20206;-68
2022/09/03 07:58:14;;;;;;;11.63;5.73;;;18.10;98.10;;;;;;5126099;27;20243;-68
2022/09/03 08:00:42;;;;;;;9.50;5.40;;;18.00;98.40;;;;;;5132297;27;20213;-67
2022/09/03 08:03:09;;;;;;;11.63;5.30;;;18.00;98.40;;;;;;5119126;27;20295;-67
2022/09/03 08:05:37;;;;;;;10.90;5.40;;;17.80;98.40;;;;;;5121876;27;20650;-68
2022/09/03 08:08:05;;;;;;;10.10;5.70;;;17.70;98.70;;;;;;5130036;27;20195;-68
2022/09/03 08:10:34;;;;;;;8.63;5.10;;;17.70;98.70;;;;;;5133462;27;20277;-67
2022/09/03 08:13:04;;;;;;;9.80;5.67;;;17.70;98.40;;;;;;5129911;27;20225;-67
2022/09/03 08:15:31;;;;;;;8.63;4.90;;;17.80;98.40;;;;;;5132761;27;20211;-68
2022/09/03 08:17:59;;;;;;;12.87;5.60;;;17.90;98.50;;;;;;5131819;27;20307;-67
2022/09/03 08:20:26;;;;;;;11.10;5.43;;;18.10;98.40;;;;;;5129711;27;20230;-68
2022/09/03 08:22:53;;;;;;;11.20;7.07;;;18.10;98.10;;;;;;5132772;27;20190;-69
2022/09/03 08:25:20;;;;;;;10.80;6.27;;;18.30;98.00;;;;;;5131229;27;20194;-68
2022/09/03 08:27:47;;;;;;;9.57;5.57;;;18.30;97.90;;;;;;5131661;27;20240;-69
2022/09/03 08:30:14;;;;;;;10.00;5.23;;;18.40;97.50;;;;;;5126110;28;20199;-68
2022/09/03 08:32:40;;;;;;;9.30;5.17;;;18.50;97.50;;;;;;5123744;28;20571;-67
2022/09/03 08:35:09;;;;;;;9.87;5.17;;;18.60;97.60;;;;;;5126063;28;20218;-72
2022/09/03 08:37:36;;;;;;;9.03;5.07;;;18.60;97.50;;;;;;5123151;28;20210;-71
2022/09/03 08:40:04;;;;;;;9.17;5.20;;;18.70;97.30;;;;;;5125157;28;20199;-73
2022/09/03 08:42:45;;;;;;;7.47;4.87;;;18.70;97.10;;;;;;5125707;27;20196;-71
2022/09/03 08:45:16;;;;;;;11.57;5.23;;;18.60;97.10;;;;;;5120152;28;20219;-71
2022/09/03 08:47:47;;;;;;;9.90;5.23;;;18.70;97.00;;;;;;5129651;28;20312;-71
2022/09/03 08:50:23;;;;;;;8.90;4.53;;;18.70;96.90;;;;;;5131809;28;20184;-72
2022/09/03 08:52:53;;;;;;;10.83;5.63;;;18.60;96.90;;;;;;5131445;28;20217;-71
2022/09/03 08:55:24;;;;;;;9.73;5.43;;;18.50;96.70;;;;;;5127696;28;20208;-71
2022/09/03 08:57:58;;;;;;;12.13;5.43;;;18.60;96.80;;;;;;5148169;27;20191;-72
2022/09/03 09:00:27;;;;;;;11.00;6.07;;;18.70;96.70;;;;;;5142506;27;20187;-73
2022/09/03 09:03:09;;;;;;;10.10;5.60;;;18.70;96.70;;;;;;5129228;27;20222;-71
2022/09/03 09:05:47;;;;;;;12.27;6.13;;;18.80;96.80;;;;;;5133174;27;20232;-71
2022/09/03 09:08:24;;;;;;;9.13;5.20;;;18.90;96.50;;;;;;5137077;27;20233;-70
2022/09/03 09:11:02;;;;;;;7.80;4.87;;;18.90;95.80;;;;;;5133102;27;20185;-73
2022/09/03 09:13:34;;;;;;;9.57;5.20;;;18.90;95.90;;;;;;5124875;27;20684;-78
2022/09/03 09:16:07;;;;;;;10.70;5.17;;;18.90;96.00;;;;;;5131415;27;21616;-73
2022/09/03 09:18:47;;;;;;;9.10;4.70;;;19.00;95.80;;;;;;5131522;27;20207;-72
2022/09/03 09:21:20;;;;;;;7.90;5.10;;;19.00;95.90;;;;;;5131583;27;20211;-74
2022/09/03 09:23:49;;;;;;;8.73;4.53;;;19.10;95.70;;;;;;5125327;27;20186;-72
2022/09/03 09:26:18;;;;;;;12.00;6.00;;;19.20;95.50;;;;;;5128191;27;20256;-75
2022/09/03 09:28:47;;;;;;;10.07;5.80;;;19.30;95.20;;;;;;5131568;27;20232;-74
2022/09/03 09:31:17;;;;;;;8.83;4.07;;;19.30;95.30;;;;;;5132438;27;20642;-73
2022/09/03 09:33:45;;;;;;;7.30;4.20;;;19.30;94.70;;;;;;5134601;27;20203;-75
2022/09/03 09:36:16;;;;;;;7.47;3.97;;;19.30;94.60;;;;;;5127124;27;20207;-77
2022/09/03 09:38:44;;;;;;;5.53;3.77;;;19.20;94.30;;;;;;5128697;27;20635;-77
2022/09/03 09:41:14;;;;;;;5.47;3.63;;;19.20;94.60;;;;;;5132289;27;20669;-75
2022/09/03 09:43:41;;;;;;;5.97;3.60;;;19.20;94.40;;;;;;5133155;27;20230;-71
2022/09/03 09:46:13;;;;;;;5.77;3.37;;;19.20;94.50;;;;;;5136158;27;20203;-72
2022/09/03 09:48:47;;;;;;;6.03;3.70;;;19.30;94.60;;;;;;5135775;27;20530;-71
2022/09/03 09:51:21;;;;;;;8.30;4.00;;;19.40;94.40;;;;;;5135014;27;20198;-72
2022/09/03 09:53:48;;;;;;;9.93;3.57;;;19.50;94.10;;;;;;5128642;27;20302;-74
2022/09/03 09:56:23;;;;;;;9.40;3.90;;;19.60;94.10;;;;;;5128849;27;20660;-70
2022/09/03 09:58:51;;;;;;;9.57;4.20;;;19.70;94.20;;;;;;5129308;27;20199;-74
2022/09/03 10:01:24;;;;;;;8.87;4.97;;;19.80;94.30;;;;;;5124630;27;20199;-73
2022/09/03 10:03:54;;;;;;;5.47;3.27;;;19.90;94.20;;;;;;5130276;27;20600;-74
2022/09/03 10:09:10;;;;;;;3.77;2.50;;;20.10;93.10;;;;;;5128279;27;20206;-72
2022/09/03 10:11:40;;;;;;;4.50;2.77;;;20.00;92.40;;;;;;5126859;27;20262;-72
2022/09/03 10:14:16;;;;;;;6.13;2.97;;;19.90;93.20;;;;;;5133608;27;20272;-74
2022/09/03 10:16:47;;;;;;;8.00;3.00;;;19.90;93.40;;;;;;5129925;27;20198;-70
2022/09/03 10:19:19;;;;;;;5.60;2.80;;;19.90;93.40;;;;;;5125847;27;20701;-70
2022/09/03 10:21:53;;;;;;;5.83;3.40;;;19.90;93.10;;;;;;5124495;27;20657;-71
2022/09/03 10:24:51;;;;;;;16.60;3.63;;;20.00;93.00;;;;;;5128751;27;20221;-73
2022/09/03 10:27:21;;;;;;;7.13;2.70;;;20.10;92.50;;;;;;5133894;27;20276;-71
2022/09/03 10:29:48;;;;;;;6.87;3.13;;;20.00;92.60;;;;;;5131765;27;20221;-72
2022/09/03 10:32:29;;;;;;;5.70;2.77;;;19.90;92.80;;;;;;5133656;27;20222;-69
2022/09/03 10:35:09;;;;;;;9.57;3.07;;;19.90;93.20;;;;;;5114592;28;20579;-72
2022/09/03 10:37:42;;;;;;;8.13;2.90;;;19.90;93.00;;;;;;5115189;27;20209;-71
2022/09/03 10:40:29;;;;;;;4.53;2.97;;;19.90;92.80;;;;;;5121404;27;20262;-71
2022/09/03 10:43:16;;;;;;;4.47;2.80;;;19.80;92.70;;;;;;5114711;27;20331;-72
2022/09/03 10:45:55;;;;;;;8.63;3.77;;;19.80;93.40;;;;;;5112958;28;20290;-71
2022/09/03 10:48:43;;;;;;;5.30;3.30;;;19.80;93.60;;;;;;5113808;28;20424;-72
2022/09/03 10:51:19;;;;;;;6.80;3.23;;;19.80;93.40;;;;;;5112248;28;20237;-70
2022/09/03 10:54:18;;;;;;;6.10;2.83;;;19.80;93.60;;;;;;5113772;28;20644;-71
2022/09/03 10:56:56;;;;;;;5.17;2.80;;;19.80;93.50;;;;;;5114002;28;20199;-71
2022/09/03 10:59:38;;;;;;;7.50;2.90;;;19.90;93.80;;;;;;5113538;28;20230;-69
2022/09/03 11:02:21;;;;;;;4.93;2.90;;;20.10;93.00;;;;;;5114037;28;20628;-70
2022/09/03 11:04:56;;;;;;;6.93;3.13;;;20.20;92.60;;;;;;5113859;28;20577;-71
2022/09/03 11:07:27;;;;;;;4.93;2.80;;;20.20;92.40;;;;;;5113518;28;20589;-71
2022/09/03 11:10:06;;;;;;;11.20;3.10;;;20.10;92.50;;;;;;5113578;28;20626;-70
2022/09/03 11:12:38;;;;;;;5.97;2.73;;;20.10;92.60;;;;;;5113839;28;20208;-70
2022/09/03 11:15:11;;;;;;;4.60;2.70;;;20.20;92.50;;;;;;5113448;28;20527;-72
2022/09/03 11:17:43;;;;;;;5.50;2.73;;;20.30;92.70;;;;;;5121931;27;20191;-71
2022/09/03 11:20:17;;;;;;;4.80;2.80;;;20.40;92.70;;;;;;5115352;27;20230;-71
2022/09/03 11:22:45;;;;;;;4.47;2.90;;;20.60;92.50;;;;;;5113217;28;20221;-72
2022/09/03 11:25:17;;;;;;;5.40;3.00;;;20.60;92.30;;;;;;5112697;28;20316;-71
2022/09/03 11:27:57;;;;;;;6.47;3.20;;;20.60;91.90;;;;;;5117777;27;20237;-71
2022/09/03 11:30:31;;;;;;;7.07;3.23;;;20.70;92.30;;;;;;5121965;27;20191;-70
2022/09/03 11:33:00;;;;;;;5.73;3.20;;;20.70;92.20;;;;;;5120308;27;20587;-72
2022/09/03 11:35:37;;;;;;;4.80;3.40;;;20.70;92.40;;;;;;5113395;28;20377;-72
2022/09/03 11:38:07;;;;;;;6.57;4.80;;;20.70;92.20;;;;;;5113176;28;20215;-70
2022/09/03 11:40:37;;;;;;;9.03;4.93;;;20.60;91.90;;;;;;5113485;27;20191;-71
2022/09/03 11:43:12;;;;;;;9.50;5.53;;;20.30;92.10;;;;;;5122094;27;20186;-70
2022/09/03 11:45:40;;;;;;;5.97;4.60;;;20.10;92.30;;;;;;5133389;27;20230;-70
2022/09/03 11:48:31;;;;;;;6.50;3.93;;;20.10;92.50;;;;;;5133516;27;20290;-71
2022/09/03 11:50:58;;;;;;;6.17;4.10;;;20.10;92.30;;;;;;5133169;27;20200;-71
2022/09/03 11:53:28;;;;;;;7.40;4.00;;;20.10;92.20;;;;;;5133725;27;20563;-69
2022/09/03 11:56:02;;;;;;;6.67;4.20;;;20.10;92.60;;;;;;5133646;27;20699;-70
2022/09/03 11:58:31;;;;;;;7.23;4.00;;;20.10;92.50;;;;;;5133817;27;20191;-72
2022/09/03 12:01:00;;;;;;;6.20;4.10;;;20.20;92.30;;;;;;5133774;27;20292;-69
2022/09/03 12:03:29;;;;;;;8.43;4.37;;;20.30;92.50;;;;;;5133893;27;20206;-71
2022/09/03 12:06:25;;;;;;;8.07;4.40;;;20.40;92.30;;;;;;5133677;27;20205;-71
2022/09/03 12:09:32;;;;;;;13.60;8.63;;;20.40;92.70;;;;;;5133591;27;20191;-71
2022/09/03 12:12:10;;;;;;;7.73;4.40;;;20.30;92.40;;;;;;5133899;27;20204;-71
2022/09/03 12:14:47;;;;;;;8.13;4.47;;;20.20;92.70;;;;;;5133707;27;20569;-73
2022/09/03 12:17:25;;;;;;;10.73;4.90;;;20.20;92.90;;;;;;5133196;27;20195;-71
2022/09/03 12:19:54;;;;;;;5.93;4.07;;;20.20;92.60;;;;;;5133370;27;20621;-71
2022/09/03 12:22:23;;;;;;;6.97;4.00;;;20.20;92.80;;;;;;5133613;27;20653;-74
2022/09/03 12:24:50;;;;;;;7.93;4.30;;;20.20;93.00;;;;;;5133397;27;20581;-74
2022/09/03 12:27:23;;;;;;;7.50;4.60;;;20.30;93.00;;;;;;5133415;27;20244;-70
2022/09/03 12:29:56;;;;;;;6.63;4.60;;;20.40;93.00;;;;;;5133053;27;20241;-71
2022/09/03 12:32:23;;;;;;;7.27;4.50;;;20.30;92.70;;;;;;5133455;27;20194;-71
2022/09/03 12:34:50;;;;;;;5.73;4.27;;;20.30;92.70;;;;;;5133090;28;20658;-70
2022/09/03 12:37:22;;;;;;;7.60;4.87;;;20.20;92.90;;;;;;5133351;28;20638;-69
2022/09/03 12:39:55;;;;;;;8.27;4.77;;;20.10;92.70;;;;;;5132804;28;20336;-72
2022/09/03 12:42:26;;;;;;;10.87;5.17;;;20.00;93.10;;;;;;5133098;28;20725;-70
2022/09/03 12:44:53;;;;;;;8.07;4.83;;;20.00;92.90;;;;;;5135838;27;20185;-70
2022/09/03 12:47:22;;;;;;;8.30;4.90;;;19.90;92.80;;;;;;5137210;27;20204;-69
2022/09/03 12:49:50;;;;;;;7.70;4.90;;;19.80;92.70;;;;;;5137386;27;20207;-71
2022/09/03 12:52:21;;;;;;;7.47;4.47;;;19.80;92.90;;;;;;5137396;27;20221;-73
2022/09/03 12:54:53;;;;;;;6.90;4.13;;;19.80;94.00;;;;;;5137146;27;20240;-71
2022/09/03 12:57:23;;;;;;;7.10;4.43;;;19.80;93.90;;;;;;5136848;27;20201;-71
2022/09/03 12:59:55;;;;;;;6.87;4.00;;;19.80;94.50;;;;;;5137373;27;20209;-71
2022/09/03 13:02:26;;;;;;;6.90;4.03;;;19.70;94.40;;;;;;5137492;27;20191;-71
2022/09/03 13:04:54;;;;;;;6.23;4.50;;;19.70;94.40;;;;;;5137317;27;20187;-71
2022/09/03 13:07:27;;;;;;;7.53;4.40;;;19.80;94.30;;;;;;5136997;27;20200;-70
2022/09/03 13:10:02;;;;;;;7.30;4.67;;;19.80;94.60;;;;;;5136902;27;20187;-70